sensor_id;sensor_type;location;lat;lon;timestamp;temperature;humidity
13482;DHT22;6813;60.352;15.746;2024-01-30T00:01:16;2.00;99.90
13482;DHT22;6813;60.352;15.746;2024-01-30T00:03:42;2.00;99.90
13482;DHT22;6813;60.352;15.746;2024-01-30T00:06:08;2.10;99.90
13482;DHT22;6813;60.352;15.746;2024-01-30T00:08:34;2.20;99.90
13482;DHT22;6813;60.352;15.746;2024-01-30T00:11:00;2.10;99.90
13482;DHT22;6813;60.352;15.746;2024-01-30T00:13:26;2.00;99.90
13482;DHT22;6813;60.352;15.746;2024-01-30T00:15:52;2.00;99.90
13482;DHT22;6813;60.352;15.746;2024-01-30T00:18:18;1.90;99.90
13482;DHT22;6813;60.352;15.746;2024-01-30T00:20:44;1.90;99.90
13482;DHT22;6813;60.352;15.746;2024-01-30T00:23:10;1.90;99.90
13482;DHT22;6813;60.352;15.746;2024-01-30T00:25:36;2.00;99.90
13482;DHT22;6813;60.352;15.746;2024-01-30T00:28:02;2.00;99.90
13482;DHT22;6813;60.352;15.746;2024-01-30T00:30:27;2.00;99.90
13482;DHT22;6813;60.352;15.746;2024-01-30T00:32:53;2.00;99.90
13482;DHT22;6813;60.352;15.746;2024-01-30T00:35:19;2.10;99.90
13482;DHT22;6813;60.352;15.746;2024-01-30T00:37:45;2.00;99.90
13482;DHT22;6813;60.352;15.746;2024-01-30T00:40:11;2.10;99.90
13482;DHT22;6813;60.352;15.746;2024-01-30T00:42:41;2.10;99.90
13482;DHT22;6813;60.352;15.746;2024-01-30T00:45:13;2.20;99.90
13482;DHT22;6813;60.352;15.746;2024-01-30T00:47:39;2.20;99.90
13482;DHT22;6813;60.352;15.746;2024-01-30T00:50:05;2.20;99.90
13482;DHT22;6813;60.352;15.746;2024-01-30T00:52:31;2.10;99.90
13482;DHT22;6813;60.352;15.746;2024-01-30T00:54:58;2.00;99.90
13482;DHT22;6813;60.352;15.746;2024-01-30T00:57:24;2.00;99.90
13482;DHT22;6813;60.352;15.746;2024-01-30T00:59:50;2.00;99.90
13482;DHT22;6813;60.352;15.746;2024-01-30T01:02:15;2.00;99.90
13482;DHT22;6813;60.352;15.746;2024-01-30T01:04:43;2.00;99.90
13482;DHT22;6813;60.352;15.746;2024-01-30T01:07:10;2.10;99.90
13482;DHT22;6813;60.352;15.746;2024-01-30T01:09:35;2.10;99.90
13482;DHT22;6813;60.352;15.746;2024-01-30T01:12:02;2.20;99.90
13482;DHT22;6813;60.352;15.746;2024-01-30T01:14:28;2.20;99.90
13482;DHT22;6813;60.352;15.746;2024-01-30T01:16:54;2.30;99.90
13482;DHT22;6813;60.352;15.746;2024-01-30T01:19:19;2.30;99.90
13482;DHT22;6813;60.352;15.746;2024-01-30T01:21:45;2.30;99.90
13482;DHT22;6813;60.352;15.746;2024-01-30T01:24:11;2.30;99.90
13482;DHT22;6813;60.352;15.746;2024-01-30T01:26:37;2.30;99.90
13482;DHT22;6813;60.352;15.746;2024-01-30T01:29:02;2.20;99.90
13482;DHT22;6813;60.352;15.746;2024-01-30T01:31:35;2.10;99.90
13482;DHT22;6813;60.352;15.746;2024-01-30T01:34:05;1.80;99.90
13482;DHT22;6813;60.352;15.746;2024-01-30T01:36:31;1.70;99.90
13482;DHT22;6813;60.352;15.746;2024-01-30T01:38:57;1.70;99.90
13482;DHT22;6813;60.352;15.746;2024-01-30T01:41:22;1.80;99.90
13482;DHT22;6813;60.352;15.746;2024-01-30T01:43:48;1.80;99.90
13482;DHT22;6813;60.352;15.746;2024-01-30T01:46:14;1.90;99.90
13482;DHT22;6813;60.352;15.746;2024-01-30T01:48:39;1.90;99.90
13482;DHT22;6813;60.352;15.746;2024-01-30T01:51:06;1.90;99.90
13482;DHT22;6813;60.352;15.746;2024-01-30T01:53:32;2.00;99.90
13482;DHT22;6813;60.352;15.746;2024-01-30T01:55:58;2.00;99.90
13482;DHT22;6813;60.352;15.746;2024-01-30T01:58:26;2.00;99.90
13482;DHT22;6813;60.352;15.746;2024-01-30T02:00:54;1.90;99.90
13482;DHT22;6813;60.352;15.746;2024-01-30T02:03:21;1.90;99.90
13482;DHT22;6813;60.352;15.746;2024-01-30T02:05:47;1.90;99.90
13482;DHT22;6813;60.352;15.746;2024-01-30T02:08:12;1.90;99.90
13482;DHT22;6813;60.352;15.746;2024-01-30T02:10:38;1.90;99.90
13482;DHT22;6813;60.352;15.746;2024-01-30T02:13:04;2.00;99.90
13482;DHT22;6813;60.352;15.746;2024-01-30T02:15:30;2.00;99.90
13482;DHT22;6813;60.352;15.746;2024-01-30T02:17:56;2.00;99.90
13482;DHT22;6813;60.352;15.746;2024-01-30T02:20:24;2.00;99.90
13482;DHT22;6813;60.352;15.746;2024-01-30T02:22:52;2.00;99.90
13482;DHT22;6813;60.352;15.746;2024-01-30T02:25:18;2.00;99.90
13482;DHT22;6813;60.352;15.746;2024-01-30T02:27:43;2.00;99.90
13482;DHT22;6813;60.352;15.746;2024-01-30T02:30:10;2.00;99.90
13482;DHT22;6813;60.352;15.746;2024-01-30T02:32:35;1.90;99.90
13482;DHT22;6813;60.352;15.746;2024-01-30T02:35:01;1.70;99.90
13482;DHT22;6813;60.352;15.746;2024-01-30T02:37:27;1.70;99.90
13482;DHT22;6813;60.352;15.746;2024-01-30T02:39:53;1.50;99.90
13482;DHT22;6813;60.352;15.746;2024-01-30T02:42:18;1.50;99.90
13482;DHT22;6813;60.352;15.746;2024-01-30T02:44:44;1.50;99.90
13482;DHT22;6813;60.352;15.746;2024-01-30T02:47:09;1.50;99.90
13482;DHT22;6813;60.352;15.746;2024-01-30T02:49:35;1.50;99.90
13482;DHT22;6813;60.352;15.746;2024-01-30T02:52:01;1.60;99.90
13482;DHT22;6813;60.352;15.746;2024-01-30T02:54:26;1.60;99.90
13482;DHT22;6813;60.352;15.746;2024-01-30T02:56:52;1.60;99.90
13482;DHT22;6813;60.352;15.746;2024-01-30T02:59:18;1.70;99.90
13482;DHT22;6813;60.352;15.746;2024-01-30T03:01:44;1.70;99.90
13482;DHT22;6813;60.352;15.746;2024-01-30T03:04:10;1.70;99.90
13482;DHT22;6813;60.352;15.746;2024-01-30T03:06:36;1.70;99.90
13482;DHT22;6813;60.352;15.746;2024-01-30T03:09:02;1.70;99.90
13482;DHT22;6813;60.352;15.746;2024-01-30T03:11:28;1.60;99.90
13482;DHT22;6813;60.352;15.746;2024-01-30T03:13:54;1.60;99.90
13482;DHT22;6813;60.352;15.746;2024-01-30T03:16:19;1.60;99.90
13482;DHT22;6813;60.352;15.746;2024-01-30T03:18:45;1.50;99.90
13482;DHT22;6813;60.352;15.746;2024-01-30T03:21:11;1.50;99.90
13482;DHT22;6813;60.352;15.746;2024-01-30T03:23:36;1.50;99.90
13482;DHT22;6813;60.352;15.746;2024-01-30T03:26:02;1.50;99.90
13482;DHT22;6813;60.352;15.746;2024-01-30T03:28:29;1.50;99.90
13482;DHT22;6813;60.352;15.746;2024-01-30T03:30:55;1.40;99.90
13482;DHT22;6813;60.352;15.746;2024-01-30T03:33:21;1.40;99.90
13482;DHT22;6813;60.352;15.746;2024-01-30T03:35:47;1.40;99.90
13482;DHT22;6813;60.352;15.746;2024-01-30T03:38:12;1.20;99.90
13482;DHT22;6813;60.352;15.746;2024-01-30T03:40:38;1.20;99.90
13482;DHT22;6813;60.352;15.746;2024-01-30T03:43:04;1.20;99.90
13482;DHT22;6813;60.352;15.746;2024-01-30T03:45:30;1.20;99.90
13482;DHT22;6813;60.352;15.746;2024-01-30T03:47:56;1.20;99.90
13482;DHT22;6813;60.352;15.746;2024-01-30T03:50:21;1.20;99.90
13482;DHT22;6813;60.352;15.746;2024-01-30T03:52:47;1.10;99.90
13482;DHT22;6813;60.352;15.746;2024-01-30T03:55:13;1.10;99.90
13482;DHT22;6813;60.352;15.746;2024-01-30T03:57:38;1.10;99.90
13482;DHT22;6813;60.352;15.746;2024-01-30T04:00:05;1.10;99.90
13482;DHT22;6813;60.352;15.746;2024-01-30T04:02:31;1.10;99.90
13482;DHT22;6813;60.352;15.746;2024-01-30T04:04:56;1.10;99.90
13482;DHT22;6813;60.352;15.746;2024-01-30T04:07:22;1.10;99.90
13482;DHT22;6813;60.352;15.746;2024-01-30T04:09:47;1.00;99.90
13482;DHT22;6813;60.352;15.746;2024-01-30T04:12:13;1.00;99.90
13482;DHT22;6813;60.352;15.746;2024-01-30T04:14:39;1.10;99.90
13482;DHT22;6813;60.352;15.746;2024-01-30T04:17:05;1.00;99.90
13482;DHT22;6813;60.352;15.746;2024-01-30T04:19:30;1.00;99.90
13482;DHT22;6813;60.352;15.746;2024-01-30T04:21:56;1.00;99.90
13482;DHT22;6813;60.352;15.746;2024-01-30T04:24:22;1.00;99.90
13482;DHT22;6813;60.352;15.746;2024-01-30T04:26:47;0.90;99.90
13482;DHT22;6813;60.352;15.746;2024-01-30T04:29:13;0.90;99.90
13482;DHT22;6813;60.352;15.746;2024-01-30T04:31:39;0.90;99.90
13482;DHT22;6813;60.352;15.746;2024-01-30T04:34:04;0.90;99.90
13482;DHT22;6813;60.352;15.746;2024-01-30T04:36:30;0.90;99.90
13482;DHT22;6813;60.352;15.746;2024-01-30T04:38:55;0.90;99.90
13482;DHT22;6813;60.352;15.746;2024-01-30T04:41:21;0.90;99.90
13482;DHT22;6813;60.352;15.746;2024-01-30T04:43:47;0.90;99.90
13482;DHT22;6813;60.352;15.746;2024-01-30T04:46:12;0.90;99.90
13482;DHT22;6813;60.352;15.746;2024-01-30T04:48:38;0.90;99.90
13482;DHT22;6813;60.352;15.746;2024-01-30T04:51:04;0.90;99.90
13482;DHT22;6813;60.352;15.746;2024-01-30T04:53:30;0.80;99.90
13482;DHT22;6813;60.352;15.746;2024-01-30T04:55:56;0.80;99.90
13482;DHT22;6813;60.352;15.746;2024-01-30T04:58:22;0.80;99.90
13482;DHT22;6813;60.352;15.746;2024-01-30T05:00:47;0.80;99.90
13482;DHT22;6813;60.352;15.746;2024-01-30T05:03:18;0.80;99.90
13482;DHT22;6813;60.352;15.746;2024-01-30T05:05:44;0.70;99.90
13482;DHT22;6813;60.352;15.746;2024-01-30T05:08:10;0.70;99.90
13482;DHT22;6813;60.352;15.746;2024-01-30T05:10:35;0.50;99.90
13482;DHT22;6813;60.352;15.746;2024-01-30T05:13:01;0.40;99.90
13482;DHT22;6813;60.352;15.746;2024-01-30T05:15:27;0.40;99.90
13482;DHT22;6813;60.352;15.746;2024-01-30T05:17:53;0.30;99.90
13482;DHT22;6813;60.352;15.746;2024-01-30T05:20:19;0.30;99.90
13482;DHT22;6813;60.352;15.746;2024-01-30T05:22:45;0.30;99.90
13482;DHT22;6813;60.352;15.746;2024-01-30T05:25:12;0.30;99.90
13482;DHT22;6813;60.352;15.746;2024-01-30T05:27:38;0.30;99.90
13482;DHT22;6813;60.352;15.746;2024-01-30T05:30:06;0.30;99.90
13482;DHT22;6813;60.352;15.746;2024-01-30T05:32:32;0.30;99.90
13482;DHT22;6813;60.352;15.746;2024-01-30T05:34:57;0.30;99.90
13482;DHT22;6813;60.352;15.746;2024-01-30T05:37:23;0.30;99.90
13482;DHT22;6813;60.352;15.746;2024-01-30T05:39:49;0.40;99.90
13482;DHT22;6813;60.352;15.746;2024-01-30T05:42:15;0.40;99.90
13482;DHT22;6813;60.352;15.746;2024-01-30T05:44:42;0.40;99.90
13482;DHT22;6813;60.352;15.746;2024-01-30T05:47:08;0.40;99.90
13482;DHT22;6813;60.352;15.746;2024-01-30T05:49:33;0.40;99.90
13482;DHT22;6813;60.352;15.746;2024-01-30T05:52:01;0.40;99.90
13482;DHT22;6813;60.352;15.746;2024-01-30T05:54:27;0.40;99.90
13482;DHT22;6813;60.352;15.746;2024-01-30T05:56:52;0.30;99.90
13482;DHT22;6813;60.352;15.746;2024-01-30T05:59:18;0.30;99.90
13482;DHT22;6813;60.352;15.746;2024-01-30T06:01:47;0.30;99.90
13482;DHT22;6813;60.352;15.746;2024-01-30T06:04:13;0.30;99.90
13482;DHT22;6813;60.352;15.746;2024-01-30T06:06:39;0.40;99.90
13482;DHT22;6813;60.352;15.746;2024-01-30T06:09:05;0.40;99.90
13482;DHT22;6813;60.352;15.746;2024-01-30T06:11:31;0.40;99.90
13482;DHT22;6813;60.352;15.746;2024-01-30T06:13:56;0.30;99.90
13482;DHT22;6813;60.352;15.746;2024-01-30T06:16:22;0.30;99.90
13482;DHT22;6813;60.352;15.746;2024-01-30T06:18:48;0.40;99.90
13482;DHT22;6813;60.352;15.746;2024-01-30T06:21:14;0.30;99.90
13482;DHT22;6813;60.352;15.746;2024-01-30T06:23:39;0.30;99.90
13482;DHT22;6813;60.352;15.746;2024-01-30T06:26:07;0.30;99.90
13482;DHT22;6813;60.352;15.746;2024-01-30T06:28:32;0.30;99.90
13482;DHT22;6813;60.352;15.746;2024-01-30T06:30:58;0.30;99.90
13482;DHT22;6813;60.352;15.746;2024-01-30T06:33:26;0.30;99.90
13482;DHT22;6813;60.352;15.746;2024-01-30T06:35:51;0.30;99.90
13482;DHT22;6813;60.352;15.746;2024-01-30T06:38:17;0.20;99.90
13482;DHT22;6813;60.352;15.746;2024-01-30T06:40:43;0.10;99.90
13482;DHT22;6813;60.352;15.746;2024-01-30T06:43:08;0.10;99.90
13482;DHT22;6813;60.352;15.746;2024-01-30T06:45:34;0.00;99.90
13482;DHT22;6813;60.352;15.746;2024-01-30T06:48:00;0.10;99.90
13482;DHT22;6813;60.352;15.746;2024-01-30T06:50:26;0.00;99.90
13482;DHT22;6813;60.352;15.746;2024-01-30T06:52:52;0.00;99.90
13482;DHT22;6813;60.352;15.746;2024-01-30T06:55:18;-0.10;99.90
13482;DHT22;6813;60.352;15.746;2024-01-30T06:57:44;-0.10;99.90
13482;DHT22;6813;60.352;15.746;2024-01-30T07:00:10;0.00;99.90
13482;DHT22;6813;60.352;15.746;2024-01-30T07:02:36;0.00;99.90
13482;DHT22;6813;60.352;15.746;2024-01-30T07:05:02;0.00;99.90
13482;DHT22;6813;60.352;15.746;2024-01-30T07:07:28;0.10;99.90
13482;DHT22;6813;60.352;15.746;2024-01-30T07:09:54;0.10;99.90
13482;DHT22;6813;60.352;15.746;2024-01-30T07:12:22;0.20;99.90
13482;DHT22;6813;60.352;15.746;2024-01-30T07:14:50;0.20;99.90
13482;DHT22;6813;60.352;15.746;2024-01-30T07:17:16;0.20;99.90
13482;DHT22;6813;60.352;15.746;2024-01-30T07:19:41;0.20;99.90
13482;DHT22;6813;60.352;15.746;2024-01-30T07:22:08;0.20;99.90
13482;DHT22;6813;60.352;15.746;2024-01-30T07:24:33;0.20;99.90
13482;DHT22;6813;60.352;15.746;2024-01-30T07:26:59;0.20;99.90
13482;DHT22;6813;60.352;15.746;2024-01-30T07:29:25;0.10;99.90
13482;DHT22;6813;60.352;15.746;2024-01-30T07:31:50;0.10;99.90
13482;DHT22;6813;60.352;15.746;2024-01-30T07:34:16;0.20;99.90
13482;DHT22;6813;60.352;15.746;2024-01-30T07:36:42;0.20;99.90
13482;DHT22;6813;60.352;15.746;2024-01-30T07:39:08;0.30;99.90
13482;DHT22;6813;60.352;15.746;2024-01-30T07:41:33;0.20;99.90
13482;DHT22;6813;60.352;15.746;2024-01-30T07:43:59;0.10;99.90
13482;DHT22;6813;60.352;15.746;2024-01-30T07:46:25;0.10;99.90
13482;DHT22;6813;60.352;15.746;2024-01-30T07:48:51;0.10;99.90
13482;DHT22;6813;60.352;15.746;2024-01-30T07:51:17;0.10;99.90
13482;DHT22;6813;60.352;15.746;2024-01-30T07:53:43;0.20;99.90
13482;DHT22;6813;60.352;15.746;2024-01-30T07:56:10;0.20;99.90
13482;DHT22;6813;60.352;15.746;2024-01-30T07:58:36;0.30;99.90
13482;DHT22;6813;60.352;15.746;2024-01-30T08:01:02;0.30;99.90
13482;DHT22;6813;60.352;15.746;2024-01-30T08:03:28;0.40;99.90
13482;DHT22;6813;60.352;15.746;2024-01-30T08:05:54;0.40;99.90
13482;DHT22;6813;60.352;15.746;2024-01-30T08:08:19;0.40;99.90
13482;DHT22;6813;60.352;15.746;2024-01-30T08:10:45;0.50;99.90
13482;DHT22;6813;60.352;15.746;2024-01-30T08:13:11;0.50;99.90
13482;DHT22;6813;60.352;15.746;2024-01-30T08:15:36;0.50;99.90
13482;DHT22;6813;60.352;15.746;2024-01-30T08:18:02;0.60;99.90
13482;DHT22;6813;60.352;15.746;2024-01-30T08:20:28;0.60;99.90
13482;DHT22;6813;60.352;15.746;2024-01-30T08:22:54;0.60;99.90
13482;DHT22;6813;60.352;15.746;2024-01-30T08:25:19;0.60;99.90
13482;DHT22;6813;60.352;15.746;2024-01-30T08:27:45;0.70;99.90
13482;DHT22;6813;60.352;15.746;2024-01-30T08:30:11;0.70;99.90
13482;DHT22;6813;60.352;15.746;2024-01-30T08:32:37;0.80;99.90
13482;DHT22;6813;60.352;15.746;2024-01-30T08:35:03;0.70;99.90
13482;DHT22;6813;60.352;15.746;2024-01-30T08:37:29;0.70;99.90
13482;DHT22;6813;60.352;15.746;2024-01-30T08:39:55;0.80;99.90
13482;DHT22;6813;60.352;15.746;2024-01-30T08:42:20;0.80;99.90
13482;DHT22;6813;60.352;15.746;2024-01-30T08:44:48;0.90;99.90
13482;DHT22;6813;60.352;15.746;2024-01-30T08:47:15;0.90;99.90
13482;DHT22;6813;60.352;15.746;2024-01-30T08:49:42;1.00;99.90
13482;DHT22;6813;60.352;15.746;2024-01-30T08:52:12;1.00;99.90
13482;DHT22;6813;60.352;15.746;2024-01-30T08:54:38;1.00;99.90
13482;DHT22;6813;60.352;15.746;2024-01-30T08:57:04;1.00;99.90
13482;DHT22;6813;60.352;15.746;2024-01-30T08:59:30;1.00;99.90
13482;DHT22;6813;60.352;15.746;2024-01-30T09:01:55;1.00;99.90
13482;DHT22;6813;60.352;15.746;2024-01-30T09:04:23;1.00;99.90
13482;DHT22;6813;60.352;15.746;2024-01-30T09:06:49;1.00;99.90
13482;DHT22;6813;60.352;15.746;2024-01-30T09:09:15;1.00;99.90
13482;DHT22;6813;60.352;15.746;2024-01-30T09:11:40;1.00;99.90
13482;DHT22;6813;60.352;15.746;2024-01-30T09:14:06;1.00;99.90
13482;DHT22;6813;60.352;15.746;2024-01-30T09:16:32;1.10;99.90
13482;DHT22;6813;60.352;15.746;2024-01-30T09:18:58;1.10;99.90
13482;DHT22;6813;60.352;15.746;2024-01-30T09:21:23;1.20;99.90
13482;DHT22;6813;60.352;15.746;2024-01-30T09:23:49;1.30;99.90
13482;DHT22;6813;60.352;15.746;2024-01-30T09:26:15;1.30;99.90
13482;DHT22;6813;60.352;15.746;2024-01-30T09:28:40;1.40;99.90
13482;DHT22;6813;60.352;15.746;2024-01-30T09:31:11;1.50;99.90
13482;DHT22;6813;60.352;15.746;2024-01-30T09:33:38;1.60;99.90
13482;DHT22;6813;60.352;15.746;2024-01-30T09:36:05;1.60;99.90
13482;DHT22;6813;60.352;15.746;2024-01-30T09:38:31;1.70;99.90
13482;DHT22;6813;60.352;15.746;2024-01-30T09:41:02;1.80;99.90
13482;DHT22;6813;60.352;15.746;2024-01-30T09:43:33;1.80;99.90
13482;DHT22;6813;60.352;15.746;2024-01-30T09:46:02;1.80;99.90
13482;DHT22;6813;60.352;15.746;2024-01-30T09:48:30;1.90;99.90
13482;DHT22;6813;60.352;15.746;2024-01-30T09:50:57;1.90;99.90
13482;DHT22;6813;60.352;15.746;2024-01-30T09:53:23;1.90;99.90
13482;DHT22;6813;60.352;15.746;2024-01-30T09:55:50;1.80;99.90
13482;DHT22;6813;60.352;15.746;2024-01-30T09:58:16;1.80;99.90
13482;DHT22;6813;60.352;15.746;2024-01-30T10:00:42;1.80;99.90
13482;DHT22;6813;60.352;15.746;2024-01-30T10:03:08;1.80;99.90
13482;DHT22;6813;60.352;15.746;2024-01-30T10:05:35;1.80;99.90
13482;DHT22;6813;60.352;15.746;2024-01-30T10:08:06;1.80;99.90
13482;DHT22;6813;60.352;15.746;2024-01-30T10:10:34;1.90;99.90
13482;DHT22;6813;60.352;15.746;2024-01-30T10:13:00;2.00;99.90
13482;DHT22;6813;60.352;15.746;2024-01-30T10:15:28;2.10;99.90
13482;DHT22;6813;60.352;15.746;2024-01-30T10:17:54;2.30;99.90
13482;DHT22;6813;60.352;15.746;2024-01-30T10:20:19;2.30;99.90
13482;DHT22;6813;60.352;15.746;2024-01-30T10:22:48;2.50;99.90
13482;DHT22;6813;60.352;15.746;2024-01-30T10:25:15;2.50;99.90
13482;DHT22;6813;60.352;15.746;2024-01-30T10:27:41;2.50;99.90
13482;DHT22;6813;60.352;15.746;2024-01-30T10:30:07;2.50;99.90
13482;DHT22;6813;60.352;15.746;2024-01-30T10:32:33;2.50;99.90
13482;DHT22;6813;60.352;15.746;2024-01-30T10:34:59;2.60;99.90
13482;DHT22;6813;60.352;15.746;2024-01-30T10:37:25;2.60;99.90
13482;DHT22;6813;60.352;15.746;2024-01-30T10:39:53;2.70;99.90
13482;DHT22;6813;60.352;15.746;2024-01-30T10:42:25;2.60;99.90
13482;DHT22;6813;60.352;15.746;2024-01-30T10:47:26;2.60;99.90
13482;DHT22;6813;60.352;15.746;2024-01-30T10:49:54;2.60;99.90
13482;DHT22;6813;60.352;15.746;2024-01-30T10:52:23;2.70;99.90
13482;DHT22;6813;60.352;15.746;2024-01-30T10:54:55;2.70;99.90
13482;DHT22;6813;60.352;15.746;2024-01-30T10:57:23;2.70;99.90
13482;DHT22;6813;60.352;15.746;2024-01-30T10:59:50;2.70;99.90
13482;DHT22;6813;60.352;15.746;2024-01-30T11:02:18;2.60;99.90
13482;DHT22;6813;60.352;15.746;2024-01-30T11:04:45;2.70;99.90
13482;DHT22;6813;60.352;15.746;2024-01-30T11:07:18;2.70;99.90
13482;DHT22;6813;60.352;15.746;2024-01-30T11:10:12;2.80;99.90
13482;DHT22;6813;60.352;15.746;2024-01-30T11:12:40;2.80;99.90
13482;DHT22;6813;60.352;15.746;2024-01-30T11:15:15;2.70;99.90
13482;DHT22;6813;60.352;15.746;2024-01-30T11:20:30;2.60;99.90
13482;DHT22;6813;60.352;15.746;2024-01-30T11:23:01;2.50;99.90
13482;DHT22;6813;60.352;15.746;2024-01-30T11:25:32;2.40;99.90
13482;DHT22;6813;60.352;15.746;2024-01-30T11:27:58;2.40;99.90
13482;DHT22;6813;60.352;15.746;2024-01-30T11:30:31;2.20;99.90
13482;DHT22;6813;60.352;15.746;2024-01-30T11:33:06;2.30;99.90
13482;DHT22;6813;60.352;15.746;2024-01-30T11:35:35;2.50;99.90
13482;DHT22;6813;60.352;15.746;2024-01-30T11:38:02;2.60;99.90
13482;DHT22;6813;60.352;15.746;2024-01-30T11:40:29;2.70;99.90
13482;DHT22;6813;60.352;15.746;2024-01-30T11:42:56;2.80;99.90
13482;DHT22;6813;60.352;15.746;2024-01-30T11:45:22;2.90;99.90
13482;DHT22;6813;60.352;15.746;2024-01-30T11:47:48;2.90;99.90
13482;DHT22;6813;60.352;15.746;2024-01-30T11:50:14;3.00;99.90
13482;DHT22;6813;60.352;15.746;2024-01-30T11:52:40;3.10;99.90
13482;DHT22;6813;60.352;15.746;2024-01-30T11:55:07;3.20;99.90
13482;DHT22;6813;60.352;15.746;2024-01-30T11:57:34;3.30;99.90
13482;DHT22;6813;60.352;15.746;2024-01-30T12:00:06;3.40;99.90
13482;DHT22;6813;60.352;15.746;2024-01-30T12:02:39;3.50;99.90
13482;DHT22;6813;60.352;15.746;2024-01-30T12:05:06;3.60;99.90
13482;DHT22;6813;60.352;15.746;2024-01-30T12:07:32;3.70;99.90
13482;DHT22;6813;60.352;15.746;2024-01-30T12:09:58;3.80;99.90
13482;DHT22;6813;60.352;15.746;2024-01-30T12:12:26;3.90;99.90
13482;DHT22;6813;60.352;15.746;2024-01-30T12:14:52;3.90;99.90
13482;DHT22;6813;60.352;15.746;2024-01-30T12:17:30;3.90;99.90
13482;DHT22;6813;60.352;15.746;2024-01-30T12:22:46;3.90;99.90
13482;DHT22;6813;60.352;15.746;2024-01-30T12:25:18;3.90;99.90
13482;DHT22;6813;60.352;15.746;2024-01-30T12:27:45;3.90;99.90
13482;DHT22;6813;60.352;15.746;2024-01-30T12:30:13;3.90;99.90
13482;DHT22;6813;60.352;15.746;2024-01-30T12:32:41;3.90;99.90
13482;DHT22;6813;60.352;15.746;2024-01-30T12:35:10;4.00;99.90
13482;DHT22;6813;60.352;15.746;2024-01-30T12:37:37;4.00;99.90
13482;DHT22;6813;60.352;15.746;2024-01-30T12:40:03;4.00;99.90
13482;DHT22;6813;60.352;15.746;2024-01-30T12:42:29;4.10;99.90
13482;DHT22;6813;60.352;15.746;2024-01-30T12:44:57;4.10;99.90
13482;DHT22;6813;60.352;15.746;2024-01-30T12:47:24;4.10;99.90
13482;DHT22;6813;60.352;15.746;2024-01-30T12:49:49;4.00;99.90
13482;DHT22;6813;60.352;15.746;2024-01-30T12:52:19;4.00;99.90
13482;DHT22;6813;60.352;15.746;2024-01-30T12:54:45;3.90;99.90
13482;DHT22;6813;60.352;15.746;2024-01-30T12:57:11;3.90;99.90
13482;DHT22;6813;60.352;15.746;2024-01-30T12:59:36;3.80;99.90
13482;DHT22;6813;60.352;15.746;2024-01-30T13:02:02;3.80;99.90
13482;DHT22;6813;60.352;15.746;2024-01-30T13:04:29;3.70;99.90
13482;DHT22;6813;60.352;15.746;2024-01-30T13:06:54;3.70;99.90
13482;DHT22;6813;60.352;15.746;2024-01-30T13:09:20;3.70;99.90
13482;DHT22;6813;60.352;15.746;2024-01-30T13:11:46;3.70;99.90
13482;DHT22;6813;60.352;15.746;2024-01-30T13:14:12;3.70;99.90
13482;DHT22;6813;60.352;15.746;2024-01-30T13:16:38;3.80;99.90
13482;DHT22;6813;60.352;15.746;2024-01-30T13:19:04;3.70;99.90
13482;DHT22;6813;60.352;15.746;2024-01-30T13:21:29;3.70;99.90
13482;DHT22;6813;60.352;15.746;2024-01-30T13:23:55;3.70;99.90
13482;DHT22;6813;60.352;15.746;2024-01-30T13:26:21;3.70;99.90
13482;DHT22;6813;60.352;15.746;2024-01-30T13:28:47;3.70;99.90
13482;DHT22;6813;60.352;15.746;2024-01-30T13:31:16;3.70;99.90
13482;DHT22;6813;60.352;15.746;2024-01-30T13:33:42;3.70;99.90
13482;DHT22;6813;60.352;15.746;2024-01-30T13:36:10;3.70;99.90
13482;DHT22;6813;60.352;15.746;2024-01-30T13:38:36;3.50;99.90
13482;DHT22;6813;60.352;15.746;2024-01-30T13:41:01;3.30;99.90
13482;DHT22;6813;60.352;15.746;2024-01-30T13:43:28;3.20;99.90
13482;DHT22;6813;60.352;15.746;2024-01-30T13:45:54;3.10;99.90
13482;DHT22;6813;60.352;15.746;2024-01-30T13:48:19;3.00;99.90
13482;DHT22;6813;60.352;15.746;2024-01-30T13:50:45;3.00;99.90
13482;DHT22;6813;60.352;15.746;2024-01-30T13:53:11;3.00;99.90
13482;DHT22;6813;60.352;15.746;2024-01-30T13:55:37;3.00;99.90
13482;DHT22;6813;60.352;15.746;2024-01-30T13:58:04;3.10;99.90
13482;DHT22;6813;60.352;15.746;2024-01-30T14:00:30;3.10;99.90
13482;DHT22;6813;60.352;15.746;2024-01-30T14:02:56;3.10;99.90
13482;DHT22;6813;60.352;15.746;2024-01-30T14:05:23;3.10;99.90
13482;DHT22;6813;60.352;15.746;2024-01-30T14:07:50;3.00;99.90
13482;DHT22;6813;60.352;15.746;2024-01-30T14:10:16;3.10;99.90
13482;DHT22;6813;60.352;15.746;2024-01-30T14:12:43;3.20;99.90
13482;DHT22;6813;60.352;15.746;2024-01-30T14:15:10;3.20;99.90
13482;DHT22;6813;60.352;15.746;2024-01-30T14:17:36;3.20;99.90
13482;DHT22;6813;60.352;15.746;2024-01-30T14:20:06;3.30;99.90
13482;DHT22;6813;60.352;15.746;2024-01-30T14:22:33;3.40;99.90
13482;DHT22;6813;60.352;15.746;2024-01-30T14:25:00;3.40;99.90
13482;DHT22;6813;60.352;15.746;2024-01-30T14:27:26;3.50;99.90
13482;DHT22;6813;60.352;15.746;2024-01-30T14:29:52;3.50;99.90
13482;DHT22;6813;60.352;15.746;2024-01-30T14:32:17;3.50;99.90
13482;DHT22;6813;60.352;15.746;2024-01-30T14:34:43;3.50;99.90
13482;DHT22;6813;60.352;15.746;2024-01-30T14:37:08;3.50;99.90
13482;DHT22;6813;60.352;15.746;2024-01-30T14:39:34;3.50;99.90
13482;DHT22;6813;60.352;15.746;2024-01-30T14:42:03;3.60;99.90
13482;DHT22;6813;60.352;15.746;2024-01-30T14:44:29;3.60;99.90
13482;DHT22;6813;60.352;15.746;2024-01-30T14:46:56;3.60;99.90
13482;DHT22;6813;60.352;15.746;2024-01-30T14:49:21;3.70;99.90
13482;DHT22;6813;60.352;15.746;2024-01-30T14:51:47;3.70;99.90
13482;DHT22;6813;60.352;15.746;2024-01-30T14:54:13;3.70;99.90
13482;DHT22;6813;60.352;15.746;2024-01-30T14:56:39;3.70;99.90
13482;DHT22;6813;60.352;15.746;2024-01-30T14:59:05;3.70;99.90
13482;DHT22;6813;60.352;15.746;2024-01-30T15:01:31;3.70;99.90
13482;DHT22;6813;60.352;15.746;2024-01-30T15:03:57;3.60;99.90
13482;DHT22;6813;60.352;15.746;2024-01-30T15:06:23;3.60;99.90
13482;DHT22;6813;60.352;15.746;2024-01-30T15:08:53;3.60;99.90
13482;DHT22;6813;60.352;15.746;2024-01-30T15:11:19;3.50;99.90
13482;DHT22;6813;60.352;15.746;2024-01-30T15:13:44;3.50;99.90
13482;DHT22;6813;60.352;15.746;2024-01-30T15:16:10;3.50;99.90
13482;DHT22;6813;60.352;15.746;2024-01-30T15:18:36;3.50;99.90
13482;DHT22;6813;60.352;15.746;2024-01-30T15:21:02;3.50;99.90
13482;DHT22;6813;60.352;15.746;2024-01-30T15:23:27;3.50;99.90
13482;DHT22;6813;60.352;15.746;2024-01-30T15:25:53;3.50;99.90
13482;DHT22;6813;60.352;15.746;2024-01-30T15:28:22;3.50;99.90
13482;DHT22;6813;60.352;15.746;2024-01-30T15:30:51;3.40;99.90
13482;DHT22;6813;60.352;15.746;2024-01-30T15:33:16;4.00;99.90
13482;DHT22;6813;60.352;15.746;2024-01-30T15:35:43;4.10;99.90
13482;DHT22;6813;60.352;15.746;2024-01-30T15:38:08;4.10;99.90
13482;DHT22;6813;60.352;15.746;2024-01-30T15:40:37;4.10;99.90
13482;DHT22;6813;60.352;15.746;2024-01-30T15:43:03;4.10;99.90
13482;DHT22;6813;60.352;15.746;2024-01-30T15:45:29;4.00;99.90
13482;DHT22;6813;60.352;15.746;2024-01-30T15:47:55;3.90;99.90